CMA CGM Otello — FMEJ — position and weather

sailwx.info

Track history (hours):
 
Tides and Currents Weather Stations Pressure Air Temp Water Temp Dewpoint Dewpoint Depression Visibility Wind Speed Wind Dir Waves Ship Positions

CMA CGM Otello

Last reported at 2017-Sep-19 17:00 UTC. Time now 2017-Sep-19 16:58 UTC.
Position N 37°48' W 122°19'.

Length 330 m; draft 10.6 m.

Type: Cargo ship. MMSI: 228353600.

Date/timePositionNaut miles runAvg speedWind from/ knotsBaromVisibWave heightAir tempDewpointWater temp
2017-Sep-19 17:00N 37°48' W 122°19'0 0.0
2017-Sep-19 16:30N 37°48' W 122°19'0 0.0
2017-Sep-19 16:00N 37°48' W 122°19'0 0.0
2017-Sep-19 15:30N 37°48' W 122°19'0 0.1
2017-Sep-19 15:00N 37°48' W 122°19'0 0.1
2017-Sep-19 14:30N 37°48' W 122°19'0 0.0
2017-Sep-19 14:00N 37°48' W 122°19'0 0.0
2017-Sep-19 13:30N 37°48' W 122°19'0 0.0
2017-Sep-19 13:00N 37°48' W 122°19'0 0.0
2017-Sep-19 12:30N 37°48' W 122°19'0 0.0
2017-Sep-19 12:00N 37°48' W 122°19'0 0.0
2017-Sep-19 11:30N 37°48' W 122°19'0 0.0
2017-Sep-19 11:00N 37°48' W 122°19'0 0.0
2017-Sep-19 10:30N 37°48' W 122°19'0 0.0
2017-Sep-19 10:00N 37°48' W 122°19'0 0.0
2017-Sep-19 09:30N 37°48' W 122°19'0 0.1
2017-Sep-19 09:00N 37°48' W 122°19'0 0.0
2017-Sep-19 08:30N 37°48' W 122°19'0 0.1
2017-Sep-19 08:00N 37°48' W 122°19'0 0.0
2017-Sep-19 07:30N 37°48' W 122°19'0 0.0
2017-Sep-19 07:00N 37°48' W 122°19'0 0.0
2017-Sep-19 06:30N 37°48' W 122°19'0 0.0
2017-Sep-19 05:57N 37°48' W 122°19'0 0.0
2017-Sep-19 05:27N 37°48' W 122°19'0 0.0
2017-Sep-19 05:00N 37°48' W 122°19'0 0.0
2017-Sep-19 04:30N 37°48' W 122°19'0 0.0
2017-Sep-19 04:00N 37°48' W 122°19'0 0.0
2017-Sep-19 03:30N 37°48' W 122°19'0 0.0
2017-Sep-19 02:57N 37°48' W 122°19'0 0.0
2017-Sep-19 02:30N 37°48' W 122°19'0 0.0
2017-Sep-19 02:00N 37°48' W 122°19'0 0.0
2017-Sep-19 01:30N 37°48' W 122°19'0 0.0
2017-Sep-19 01:00N 37°48' W 122°19'0 0.0
2017-Sep-19 00:30N 37°48' W 122°19'0 0.4
2017-Sep-19 00:00N 37°48' W 122°19'2 4.9
2017-Sep-18 23:30N 37°47' W 122°22'1 1.7
2017-Sep-18 23:00N 37°48' W 122°23'3 5.4
2017-Sep-18 22:30N 37°49' W 122°26'4 8.1
2017-Sep-18 22:00N 37°48' W 122°31'4 8.0
2017-Sep-18 21:30N 37°47' W 122°36'5 9.2
2017-Sep-18 21:00N 37°44' W 122°41'4 7.2
2017-Sep-18 20:30N 37°41' W 122°40'713.2
2017-Sep-18 20:00N 37°34' W 122°40'714.8
2017-Sep-18 19:31N 37°27' W 122°39'714.3
2017-Sep-18 19:00N 37°20' W 122°40'715.0
2017-Sep-18 18:31N 37°12' W 122°39'814.9
2017-Sep-18 18:00N 37°05' W 122°37'714.7
2017-Sep-18 17:30N 36°58' W 122°33'611.7
2017-Sep-18 16:59N 36°52' W 122°30'9419.0
2017-Sep-18 12:01N 35°29' W 121°37'018.9
2017-Sep-18 12:00N 35°29' W 121°37'919.2
2017-Sep-18 11:30N 35°21' W 121°31'1019.1
2017-Sep-18 11:00N 35°12' W 121°25'1019.6
2017-Sep-18 10:30N 35°04' W 121°19'1019.5
2017-Sep-18 10:00N 34°55' W 121°13'1019.5
2017-Sep-18 09:30N 34°47' W 121°07'1019.5
2017-Sep-18 09:00N 34°39' W 121°01'1019.2
2017-Sep-18 08:30N 34°30' W 120°55'918.3
2017-Sep-18 08:00N 34°25' W 120°46'919.1
2017-Sep-18 07:30N 34°22' W 120°35'1019.4
2017-Sep-18 07:00N 34°20' W 120°23'1020.4
2017-Sep-18 06:30N 34°17' W 120°11'1020.7
2017-Sep-18 06:00N 34°14' W 119°59'1020.3
2017-Sep-18 05:30N 34°12' W 119°48'1019.1
2017-Sep-18 04:58N 34°09' W 119°36'918.6
2017-Sep-18 04:30N 34°07' W 119°26'918.6
2017-Sep-18 04:00N 34°04' W 119°15'917.2
2017-Sep-18 03:30N 33°60' W 119°06'917.5
2017-Sep-18 03:00N 33°55' W 118°57'917.2
2017-Sep-18 02:30N 33°51' W 118°48'815.7
2017-Sep-18 02:00N 33°47' W 118°39'713.3
2017-Sep-18 01:31N 33°44' W 118°33'713.1
2017-Sep-18 01:01N 33°41' W 118°26'612.4
2017-Sep-18 00:31N 33°38' W 118°19'510.4
2017-Sep-18 00:00N 33°42' W 118°15'2 3.5
2017-Sep-17 23:30N 33°44' W 118°16'1 1.1
2017-Sep-17 23:00N 33°44' W 118°15'0 0.0
2017-Sep-17 22:30N 33°44' W 118°15'0 0.0
2017-Sep-17 21:48N 33°44' W 118°15'0 0.0
2017-Sep-17 21:30N 33°44' W 118°15'0 0.0
2017-Sep-17 21:00N 33°44' W 118°15'0 0.0
2017-Sep-17 20:31N 33°44' W 118°15'0 0.0
2017-Sep-17 20:01N 33°44' W 118°15'0 0.0
2017-Sep-17 19:24N 33°44' W 118°15'0 0.0
2017-Sep-17 19:00N 33°44' W 118°15'0 0.0
2017-Sep-17 18:30N 33°44' W 118°15'0 0.0
2017-Sep-17 18:00N 33°44' W 118°15'0 0.0
2017-Sep-17 17:24N 33°44' W 118°15'0 0.0
2017-Sep-17 16:54N 33°44' W 118°15'0 0.0
2017-Sep-17 16:30N 33°44' W 118°15'0 0.0
2017-Sep-17 15:42N 33°44' W 118°15'0 0.0
2017-Sep-17 14:10N 33°44' W 118°15'0 0.0
2017-Sep-17 14:00N 33°44' W 118°15'0 0.0
2017-Sep-17 13:30N 33°44' W 118°15'0 0.0
2017-Sep-17 12:58N 33°44' W 118°15'0 0.0
2017-Sep-17 12:06N 33°44' W 118°15'0 0.0
2017-Sep-17 12:00N 33°44' W 118°15'0 0.0
2017-Sep-17 11:28N 33°44' W 118°15'0 0.1
2017-Sep-17 11:00N 33°44' W 118°15'0 0.1
2017-Sep-17 10:24N 33°44' W 118°15'0 0.0
2017-Sep-17 10:00N 33°44' W 118°15'0 0.0
2017-Sep-17 09:28N 33°44' W 118°15'0 0.0
2017-Sep-17 09:00N 33°44' W 118°15'0 0.0
2017-Sep-17 08:24N 33°44' W 118°15'0 0.0
2017-Sep-17 08:00N 33°44' W 118°15'0 0.0
2017-Sep-17 07:30N 33°44' W 118°15'0 0.0
2017-Sep-17 07:00N 33°44' W 118°15'0 0.0
2017-Sep-17 06:30N 33°44' W 118°15'0 0.0
2017-Sep-17 06:00N 33°44' W 118°15'0 0.0
2017-Sep-17 05:30N 33°44' W 118°15'0 0.0
2017-Sep-17 04:54N 33°44' W 118°15'0 0.0
2017-Sep-17 04:30N 33°44' W 118°15'0 0.0
2017-Sep-17 04:00N 33°44' W 118°15'0 0.0
2017-Sep-17 03:31N 33°44' W 118°15'0 0.0
2017-Sep-17 02:54N 33°44' W 118°15'0 0.0
2017-Sep-17 02:25N 33°44' W 118°15'0 0.0
2017-Sep-17 01:54N 33°44' W 118°15'0 0.0
2017-Sep-17 01:30N 33°44' W 118°15'0 0.0
2017-Sep-17 01:00N 33°44' W 118°15'0 0.0
2017-Sep-16 23:48N 33°44' W 118°15'0 0.0
2017-Sep-16 23:24N 33°44' W 118°15'0 0.0
2017-Sep-16 23:01N 33°44' W 118°15'0 0.0
2017-Sep-16 22:24N 33°44' W 118°15'0 0.0
2017-Sep-16 22:00N 33°44' W 118°15'0 0.0
2017-Sep-16 21:30N 33°44' W 118°15'0 0.0
2017-Sep-16 21:00N 33°44' W 118°15'0 0.0
2017-Sep-16 20:30N 33°44' W 118°15'0 0.0
2017-Sep-16 20:01N 33°44' W 118°15'0 0.0
2017-Sep-16 19:30N 33°44' W 118°15'0 0.0
2017-Sep-16 18:55N 33°44' W 118°15'0 0.0
2017-Sep-16 18:12N 33°44' W 118°15'0 0.0
2017-Sep-16 18:00N 33°44' W 118°15'0 0.0
2017-Sep-16 17:30N 33°44' W 118°15'0 0.1
2017-Sep-16 17:00N 33°44' W 118°15'0 0.1
2017-Sep-16 16:30N 33°44' W 118°15'0 0.0
2017-Sep-16 16:00N 33°44' W 118°15'0 0.0
2017-Sep-16 14:06N 33°44' W 118°15'0 0.0
2017-Sep-16 14:00N 33°44' W 118°15'0 0.0
2017-Sep-16 13:30N 33°44' W 118°15'0 0.0
2017-Sep-16 12:58N 33°44' W 118°15'0 0.0
2017-Sep-16 12:30N 33°44' W 118°15'0 0.0
2017-Sep-16 12:00N 33°44' W 118°15'0 0.0
2017-Sep-16 11:18N 33°44' W 118°15'0 0.0
2017-Sep-16 11:00N 33°44' W 118°15'0 0.1
2017-Sep-16 10:28N 33°44' W 118°15'0 0.1
2017-Sep-16 09:54N 33°44' W 118°15'0 0.1
2017-Sep-16 09:30N 33°44' W 118°15'0 0.1
2017-Sep-16 08:36N 33°44' W 118°15'0 0.0
2017-Sep-16 08:30N 33°44' W 118°15'0 0.0
2017-Sep-16 08:00N 33°44' W 118°15'0 0.0
2017-Sep-16 07:30N 33°44' W 118°15'0 0.0
2017-Sep-16 07:01N 33°44' W 118°15'0 0.0
2017-Sep-16 06:30N 33°44' W 118°15'0 0.0
2017-Sep-16 06:00N 33°44' W 118°15'0 0.0
2017-Sep-16 05:30N 33°44' W 118°15'0 0.0
2017-Sep-16 05:00N 33°44' W 118°15'0 0.0
2017-Sep-16 04:30N 33°44' W 118°15'0 0.0
2017-Sep-16 03:48N 33°44' W 118°15'0 0.0
2017-Sep-16 03:30N 33°44' W 118°15'0 0.0
2017-Sep-16 03:00N 33°44' W 118°15'0 0.0
2017-Sep-16 02:30N 33°44' W 118°15'0 0.0
2017-Sep-16 02:00N 33°44' W 118°15'0 0.0
2017-Sep-16 01:30N 33°44' W 118°15'0 0.0
2017-Sep-16 01:00N 33°44' W 118°15'0 0.0
2017-Sep-16 00:30N 33°44' W 118°15'0 0.0
2017-Sep-16 00:01N 33°44' W 118°15'0 0.0
2017-Sep-15 23:30N 33°44' W 118°15'0 0.0
2017-Sep-15 23:00N 33°44' W 118°15'0 0.0
2017-Sep-15 22:30N 33°44' W 118°15'0 0.0
2017-Sep-15 21:54N 33°44' W 118°15'0 0.0
2017-Sep-15 21:31N 33°44' W 118°15'0 0.0
2017-Sep-15 21:00N 33°44' W 118°15'0 0.0
2017-Sep-15 20:30N 33°44' W 118°15'0 0.0
2017-Sep-15 20:00N 33°44' W 118°15'0 0.0
2017-Sep-15 19:30N 33°44' W 118°15'0 0.0
2017-Sep-15 19:00N 33°44' W 118°15'0 0.0
2017-Sep-15 18:30N 33°44' W 118°15'0 0.0
2017-Sep-15 18:00N 33°44' W 118°15'0 0.0
2017-Sep-15 17:30N 33°44' W 118°15'0 0.0
2017-Sep-15 17:01N 33°44' W 118°15'0 0.0
2017-Sep-15 16:30N 33°44' W 118°15'0 0.0
2017-Sep-15 16:00N 33°44' W 118°15'0 0.0
2017-Sep-15 15:30N 33°44' W 118°15'0 0.0
2017-Sep-15 15:00N 33°44' W 118°15'0 0.0
2017-Sep-15 14:30N 33°44' W 118°15'0 0.0
2017-Sep-15 14:00N 33°44' W 118°15'0 0.0
2017-Sep-15 13:31N 33°44' W 118°15'0 0.0
2017-Sep-15 12:58N 33°44' W 118°15'0 0.0
2017-Sep-15 12:30N 33°44' W 118°15'0 0.1
2017-Sep-15 11:57N 33°44' W 118°15'0 0.1
2017-Sep-15 11:30N 33°44' W 118°15'0 0.1
2017-Sep-15 11:00N 33°44' W 118°15'0 0.1
2017-Sep-15 10:31N 33°44' W 118°15'0 0.0
2017-Sep-15 09:58N 33°44' W 118°15'0 0.0
2017-Sep-15 09:31N 33°44' W 118°15'0 0.0
2017-Sep-15 09:01N 33°44' W 118°15'0 0.0
2017-Sep-15 08:31N 33°44' W 118°15'0 0.0
2017-Sep-15 07:58N 33°44' W 118°15'0 0.1
2017-Sep-15 07:31N 33°44' W 118°15'0 0.0
2017-Sep-15 07:01N 33°44' W 118°15'0 0.1
2017-Sep-15 06:30N 33°44' W 118°15'0 0.0
2017-Sep-15 06:00N 33°44' W 118°15'0 0.0
2017-Sep-15 05:30N 33°44' W 118°15'0 0.0
2017-Sep-15 05:00N 33°44' W 118°15'0 0.0
2017-Sep-15 04:30N 33°44' W 118°15'0 0.0
2017-Sep-15 03:54N 33°44' W 118°15'0 0.0
2017-Sep-15 03:30N 33°44' W 118°15'0 0.0
2017-Sep-15 03:00N 33°44' W 118°15'0 0.0
2017-Sep-15 02:22N 33°44' W 118°15'0 0.0
2017-Sep-15 02:00N 33°44' W 118°15'0 0.0
2017-Sep-15 01:30N 33°44' W 118°15'0 0.0
2017-Sep-15 00:58N 33°44' W 118°15'0 0.0
2017-Sep-15 00:30N 33°44' W 118°15'0 0.0
2017-Sep-15 00:00N 33°44' W 118°15'0 0.0
2017-Sep-14 23:30N 33°44' W 118°15'0 0.0
2017-Sep-14 23:00N 33°44' W 118°15'0 0.0
2017-Sep-14 22:30N 33°44' W 118°15'0 0.0
2017-Sep-14 22:00N 33°44' W 118°15'0 0.0
2017-Sep-14 21:30N 33°44' W 118°15'0 0.0
2017-Sep-14 21:00N 33°44' W 118°15'0 0.0
2017-Sep-14 20:24N 33°44' W 118°15'0 0.0
2017-Sep-14 20:00N 33°44' W 118°15'0 0.0
2017-Sep-14 19:30N 33°44' W 118°15'0 0.0
2017-Sep-14 19:01N 33°44' W 118°15'0 0.0
2017-Sep-14 18:30N 33°44' W 118°15'0 0.0
2017-Sep-14 18:00N 33°44' W 118°15'0 0.1
2017-Sep-14 17:24N 33°44' W 118°15'0 0.1
2017-Sep-14 17:00N 33°44' W 118°15'0 0.1
2017-Sep-14 16:30N 33°44' W 118°15'0 0.1
2017-Sep-14 16:00N 33°44' W 118°15'0 0.1
2017-Sep-14 15:30N 33°44' W 118°15'0 0.1
2017-Sep-14 15:00N 33°44' W 118°15'0 0.0
2017-Sep-14 14:31N 33°44' W 118°15'0 0.0
2017-Sep-14 13:58N 33°44' W 118°15'0 0.0
2017-Sep-14 13:31N 33°44' W 118°15'0 0.0
2017-Sep-14 13:01N 33°44' W 118°15'0 0.1
2017-Sep-14 12:30N 33°44' W 118°15'0 0.1
2017-Sep-14 12:01N 33°44' W 118°15'0 0.0
2017-Sep-14 11:31N 33°44' W 118°15'0 0.0
2017-Sep-14 11:01N 33°44' W 118°15'0 0.0
2017-Sep-14 10:30N 33°44' W 118°15'0 0.0
2017-Sep-14 10:00N 33°44' W 118°15'0 0.1
2017-Sep-14 09:30N 33°44' W 118°15'0 0.1
2017-Sep-14 09:00N 33°44' W 118°15'0 0.0
2017-Sep-14 08:30N 33°44' W 118°15'0 0.0
2017-Sep-14 08:00N 33°44' W 118°15'0 0.3
2017-Sep-14 07:30N 33°44' W 118°15'2 4.0
2017-Sep-14 07:00N 33°42' W 118°15'4 7.5
2017-Sep-14 06:30N 33°38' W 118°14'4 8.5
2017-Sep-14 06:00N 33°36' W 118°18'611.6
2017-Sep-14 05:30N 33°36' W 118°25'811.9
2017-Sep-14 04:51N 33°36' W 118°34'411.7
2017-Sep-14 04:30N 33°36' W 118°39'611.8
2017-Sep-14 04:00N 33°36' W 118°46'812.1
2017-Sep-14 03:22N 33°36' W 118°55'719.9
2017-Sep-14 03:00N 33°36' W 119°04'1121.5
2017-Sep-14 02:30N 33°33' W 119°16'1121.6
2017-Sep-14 02:00N 33°29' W 119°29'1121.5
2017-Sep-14 01:30N 33°26' W 119°41'1221.2
2017-Sep-14 00:55N 33°22' W 119°55'920.8
2017-Sep-14 00:30N 33°19' W 120°05'1020.6
2017-Sep-14 00:00N 33°15' W 120°16'1120.9
2017-Sep-13 23:30N 33°11' W 120°28'1121.4
2017-Sep-13 23:00N 33°08' W 120°40'1121.2
2017-Sep-13 22:30N 33°04' W 120°52'37419.2
2017-Sep-13 03:03N 35°20' W 127°53'121.2
2017-Sep-13 03:00N 35°20' W 127°54'19120.0
2017-Sep-12 17:28N 36°58' W 131°18'  
Track history (hours):
 
Tides and Currents Weather Stations Pressure Air Temp Water Temp Dewpoint Dewpoint Depression Visibility Wind Speed Wind Dir Waves Ship Positions

CMA CGM Otello

Last reported at 2017-Sep-19 17:00 UTC. Time now 2017-Sep-19 16:58 UTC.
Position N 37°48' W 122°19'.

Length 330 m; draft 10.6 m.

Type: Cargo ship. MMSI: 228353600.

Date/timePositionNaut miles runAvg speedWind from/ knotsBaromVisibWave heightAir tempDewpointWater temp
2017-Sep-19 17:00N 37°48' W 122°19'0 0.0
2017-Sep-19 16:30N 37°48' W 122°19'0 0.0
2017-Sep-19 16:00N 37°48' W 122°19'0 0.0
2017-Sep-19 15:30N 37°48' W 122°19'0 0.1
2017-Sep-19 15:00N 37°48' W 122°19'0 0.1
2017-Sep-19 14:30N 37°48' W 122°19'0 0.0
2017-Sep-19 14:00N 37°48' W 122°19'0 0.0
2017-Sep-19 13:30N 37°48' W 122°19'0 0.0
2017-Sep-19 13:00N 37°48' W 122°19'0 0.0
2017-Sep-19 12:30N 37°48' W 122°19'0 0.0
2017-Sep-19 12:00N 37°48' W 122°19'0 0.0
2017-Sep-19 11:30N 37°48' W 122°19'0 0.0
2017-Sep-19 11:00N 37°48' W 122°19'0 0.0
2017-Sep-19 10:30N 37°48' W 122°19'0 0.0
2017-Sep-19 10:00N 37°48' W 122°19'0 0.0
2017-Sep-19 09:30N 37°48' W 122°19'0 0.1
2017-Sep-19 09:00N 37°48' W 122°19'0 0.0
2017-Sep-19 08:30N 37°48' W 122°19'0 0.1
2017-Sep-19 08:00N 37°48' W 122°19'0 0.0
2017-Sep-19 07:30N 37°48' W 122°19'0 0.0
2017-Sep-19 07:00N 37°48' W 122°19'0 0.0
2017-Sep-19 06:30N 37°48' W 122°19'0 0.0
2017-Sep-19 05:57N 37°48' W 122°19'0 0.0
2017-Sep-19 05:27N 37°48' W 122°19'0 0.0
2017-Sep-19 05:00N 37°48' W 122°19'0 0.0
2017-Sep-19 04:30N 37°48' W 122°19'0 0.0
2017-Sep-19 04:00N 37°48' W 122°19'0 0.0
2017-Sep-19 03:30N 37°48' W 122°19'0 0.0
2017-Sep-19 02:57N 37°48' W 122°19'0 0.0
2017-Sep-19 02:30N 37°48' W 122°19'0 0.0
2017-Sep-19 02:00N 37°48' W 122°19'0 0.0
2017-Sep-19 01:30N 37°48' W 122°19'0 0.0
2017-Sep-19 01:00N 37°48' W 122°19'0 0.0
2017-Sep-19 00:30N 37°48' W 122°19'0 0.4
2017-Sep-19 00:00N 37°48' W 122°19'2 4.9
2017-Sep-18 23:30N 37°47' W 122°22'1 1.7
2017-Sep-18 23:00N 37°48' W 122°23'3 5.4
2017-Sep-18 22:30N 37°49' W 122°26'4 8.1
2017-Sep-18 22:00N 37°48' W 122°31'4 8.0
2017-Sep-18 21:30N 37°47' W 122°36'5 9.2
2017-Sep-18 21:00N 37°44' W 122°41'4 7.2
2017-Sep-18 20:30N 37°41' W 122°40'713.2
2017-Sep-18 20:00N 37°34' W 122°40'714.8
2017-Sep-18 19:31N 37°27' W 122°39'714.3
2017-Sep-18 19:00N 37°20' W 122°40'715.0
2017-Sep-18 18:31N 37°12' W 122°39'814.9
2017-Sep-18 18:00N 37°05' W 122°37'714.7
2017-Sep-18 17:30N 36°58' W 122°33'611.7
2017-Sep-18 16:59N 36°52' W 122°30'9419.0
2017-Sep-18 12:01N 35°29' W 121°37'018.9
2017-Sep-18 12:00N 35°29' W 121°37'919.2
2017-Sep-18 11:30N 35°21' W 121°31'1019.1
2017-Sep-18 11:00N 35°12' W 121°25'1019.6
2017-Sep-18 10:30N 35°04' W 121°19'1019.5
2017-Sep-18 10:00N 34°55' W 121°13'1019.5
2017-Sep-18 09:30N 34°47' W 121°07'1019.5
2017-Sep-18 09:00N 34°39' W 121°01'1019.2
2017-Sep-18 08:30N 34°30' W 120°55'918.3
2017-Sep-18 08:00N 34°25' W 120°46'919.1
2017-Sep-18 07:30N 34°22' W 120°35'1019.4
2017-Sep-18 07:00N 34°20' W 120°23'1020.4
2017-Sep-18 06:30N 34°17' W 120°11'1020.7
2017-Sep-18 06:00N 34°14' W 119°59'1020.3
2017-Sep-18 05:30N 34°12' W 119°48'1019.1
2017-Sep-18 04:58N 34°09' W 119°36'918.6
2017-Sep-18 04:30N 34°07' W 119°26'918.6
2017-Sep-18 04:00N 34°04' W 119°15'917.2
2017-Sep-18 03:30N 33°60' W 119°06'917.5
2017-Sep-18 03:00N 33°55' W 118°57'917.2
2017-Sep-18 02:30N 33°51' W 118°48'815.7
2017-Sep-18 02:00N 33°47' W 118°39'713.3
2017-Sep-18 01:31N 33°44' W 118°33'713.1
2017-Sep-18 01:01N 33°41' W 118°26'612.4
2017-Sep-18 00:31N 33°38' W 118°19'510.4
2017-Sep-18 00:00N 33°42' W 118°15'2 3.5
2017-Sep-17 23:30N 33°44' W 118°16'1 1.1
2017-Sep-17 23:00N 33°44' W 118°15'0 0.0
2017-Sep-17 22:30N 33°44' W 118°15'0 0.0
2017-Sep-17 21:48N 33°44' W 118°15'0 0.0
2017-Sep-17 21:30N 33°44' W 118°15'0 0.0
2017-Sep-17 21:00N 33°44' W 118°15'0 0.0
2017-Sep-17 20:31N 33°44' W 118°15'0 0.0
2017-Sep-17 20:01N 33°44' W 118°15'0 0.0
2017-Sep-17 19:24N 33°44' W 118°15'0 0.0
2017-Sep-17 19:00N 33°44' W 118°15'0 0.0
2017-Sep-17 18:30N 33°44' W 118°15'0 0.0
2017-Sep-17 18:00N 33°44' W 118°15'0 0.0
2017-Sep-17 17:24N 33°44' W 118°15'0 0.0
2017-Sep-17 16:54N 33°44' W 118°15'0 0.0
2017-Sep-17 16:30N 33°44' W 118°15'0 0.0
2017-Sep-17 15:42N 33°44' W 118°15'0 0.0
2017-Sep-17 14:10N 33°44' W 118°15'0 0.0
2017-Sep-17 14:00N 33°44' W 118°15'0 0.0
2017-Sep-17 13:30N 33°44' W 118°15'0 0.0
2017-Sep-17 12:58N 33°44' W 118°15'0 0.0
2017-Sep-17 12:06N 33°44' W 118°15'0 0.0
2017-Sep-17 12:00N 33°44' W 118°15'0 0.0
2017-Sep-17 11:28N 33°44' W 118°15'0 0.1
2017-Sep-17 11:00N 33°44' W 118°15'0 0.1
2017-Sep-17 10:24N 33°44' W 118°15'0 0.0
2017-Sep-17 10:00N 33°44' W 118°15'0 0.0
2017-Sep-17 09:28N 33°44' W 118°15'0 0.0
2017-Sep-17 09:00N 33°44' W 118°15'0 0.0
2017-Sep-17 08:24N 33°44' W 118°15'0 0.0
2017-Sep-17 08:00N 33°44' W 118°15'0 0.0
2017-Sep-17 07:30N 33°44' W 118°15'0 0.0
2017-Sep-17 07:00N 33°44' W 118°15'0 0.0
2017-Sep-17 06:30N 33°44' W 118°15'0 0.0
2017-Sep-17 06:00N 33°44' W 118°15'0 0.0
2017-Sep-17 05:30N 33°44' W 118°15'0 0.0
2017-Sep-17 04:54N 33°44' W 118°15'0 0.0
2017-Sep-17 04:30N 33°44' W 118°15'0 0.0
2017-Sep-17 04:00N 33°44' W 118°15'0 0.0
2017-Sep-17 03:31N 33°44' W 118°15'0 0.0
2017-Sep-17 02:54N 33°44' W 118°15'0 0.0
2017-Sep-17 02:25N 33°44' W 118°15'0 0.0
2017-Sep-17 01:54N 33°44' W 118°15'0 0.0
2017-Sep-17 01:30N 33°44' W 118°15'0 0.0
2017-Sep-17 01:00N 33°44' W 118°15'0 0.0
2017-Sep-16 23:48N 33°44' W 118°15'0 0.0
2017-Sep-16 23:24N 33°44' W 118°15'0 0.0
2017-Sep-16 23:01N 33°44' W 118°15'0 0.0
2017-Sep-16 22:24N 33°44' W 118°15'0 0.0
2017-Sep-16 22:00N 33°44' W 118°15'0 0.0
2017-Sep-16 21:30N 33°44' W 118°15'0 0.0
2017-Sep-16 21:00N 33°44' W 118°15'0 0.0
2017-Sep-16 20:30N 33°44' W 118°15'0 0.0
2017-Sep-16 20:01N 33°44' W 118°15'0 0.0
2017-Sep-16 19:30N 33°44' W 118°15'0 0.0
2017-Sep-16 18:55N 33°44' W 118°15'0 0.0
2017-Sep-16 18:12N 33°44' W 118°15'0 0.0
2017-Sep-16 18:00N 33°44' W 118°15'0 0.0
2017-Sep-16 17:30N 33°44' W 118°15'0 0.1
2017-Sep-16 17:00N 33°44' W 118°15'0 0.1
2017-Sep-16 16:30N 33°44' W 118°15'0 0.0
2017-Sep-16 16:00N 33°44' W 118°15'0 0.0
2017-Sep-16 14:06N 33°44' W 118°15'0 0.0
2017-Sep-16 14:00N 33°44' W 118°15'0 0.0
2017-Sep-16 13:30N 33°44' W 118°15'0 0.0
2017-Sep-16 12:58N 33°44' W 118°15'0 0.0
2017-Sep-16 12:30N 33°44' W 118°15'0 0.0
2017-Sep-16 12:00N 33°44' W 118°15'0 0.0
2017-Sep-16 11:18N 33°44' W 118°15'0 0.0
2017-Sep-16 11:00N 33°44' W 118°15'0 0.1
2017-Sep-16 10:28N 33°44' W 118°15'0 0.1
2017-Sep-16 09:54N 33°44' W 118°15'0 0.1
2017-Sep-16 09:30N 33°44' W 118°15'0 0.1
2017-Sep-16 08:36N 33°44' W 118°15'0 0.0
2017-Sep-16 08:30N 33°44' W 118°15'0 0.0
2017-Sep-16 08:00N 33°44' W 118°15'0 0.0
2017-Sep-16 07:30N 33°44' W 118°15'0 0.0
2017-Sep-16 07:01N 33°44' W 118°15'0 0.0
2017-Sep-16 06:30N 33°44' W 118°15'0 0.0
2017-Sep-16 06:00N 33°44' W 118°15'0 0.0
2017-Sep-16 05:30N 33°44' W 118°15'0 0.0
2017-Sep-16 05:00N 33°44' W 118°15'0 0.0
2017-Sep-16 04:30N 33°44' W 118°15'0 0.0
2017-Sep-16 03:48N 33°44' W 118°15'0 0.0
2017-Sep-16 03:30N 33°44' W 118°15'0 0.0
2017-Sep-16 03:00N 33°44' W 118°15'0 0.0
2017-Sep-16 02:30N 33°44' W 118°15'0 0.0
2017-Sep-16 02:00N 33°44' W 118°15'0 0.0
2017-Sep-16 01:30N 33°44' W 118°15'0 0.0
2017-Sep-16 01:00N 33°44' W 118°15'0 0.0
2017-Sep-16 00:30N 33°44' W 118°15'0 0.0
2017-Sep-16 00:01N 33°44' W 118°15'0 0.0
2017-Sep-15 23:30N 33°44' W 118°15'0 0.0
2017-Sep-15 23:00N 33°44' W 118°15'0 0.0
2017-Sep-15 22:30N 33°44' W 118°15'0 0.0
2017-Sep-15 21:54N 33°44' W 118°15'0 0.0
2017-Sep-15 21:31N 33°44' W 118°15'0 0.0
2017-Sep-15 21:00N 33°44' W 118°15'0 0.0
2017-Sep-15 20:30N 33°44' W 118°15'0 0.0
2017-Sep-15 20:00N 33°44' W 118°15'0 0.0
2017-Sep-15 19:30N 33°44' W 118°15'0 0.0
2017-Sep-15 19:00N 33°44' W 118°15'0 0.0
2017-Sep-15 18:30N 33°44' W 118°15'0 0.0
2017-Sep-15 18:00N 33°44' W 118°15'0 0.0
2017-Sep-15 17:30N 33°44' W 118°15'0 0.0
2017-Sep-15 17:01N 33°44' W 118°15'0 0.0
2017-Sep-15 16:30N 33°44' W 118°15'0 0.0
2017-Sep-15 16:00N 33°44' W 118°15'0 0.0
2017-Sep-15 15:30N 33°44' W 118°15'0 0.0
2017-Sep-15 15:00N 33°44' W 118°15'0 0.0
2017-Sep-15 14:30N 33°44' W 118°15'0 0.0
2017-Sep-15 14:00N 33°44' W 118°15'0 0.0
2017-Sep-15 13:31N 33°44' W 118°15'0 0.0
2017-Sep-15 12:58N 33°44' W 118°15'0 0.0
2017-Sep-15 12:30N 33°44' W 118°15'0 0.1
2017-Sep-15 11:57N 33°44' W 118°15'0 0.1
2017-Sep-15 11:30N 33°44' W 118°15'0 0.1
2017-Sep-15 11:00N 33°44' W 118°15'0 0.1
2017-Sep-15 10:31N 33°44' W 118°15'0 0.0
2017-Sep-15 09:58N 33°44' W 118°15'0 0.0
2017-Sep-15 09:31N 33°44' W 118°15'0 0.0
2017-Sep-15 09:01N 33°44' W 118°15'0 0.0
2017-Sep-15 08:31N 33°44' W 118°15'0 0.0
2017-Sep-15 07:58N 33°44' W 118°15'0 0.1
2017-Sep-15 07:31N 33°44' W 118°15'0 0.0
2017-Sep-15 07:01N 33°44' W 118°15'0 0.1
2017-Sep-15 06:30N 33°44' W 118°15'0 0.0
2017-Sep-15 06:00N 33°44' W 118°15'0 0.0
2017-Sep-15 05:30N 33°44' W 118°15'0 0.0
2017-Sep-15 05:00N 33°44' W 118°15'0 0.0
2017-Sep-15 04:30N 33°44' W 118°15'0 0.0
2017-Sep-15 03:54N 33°44' W 118°15'0 0.0
2017-Sep-15 03:30N 33°44' W 118°15'0 0.0
2017-Sep-15 03:00N 33°44' W 118°15'0 0.0
2017-Sep-15 02:22N 33°44' W 118°15'0 0.0
2017-Sep-15 02:00N 33°44' W 118°15'0 0.0
2017-Sep-15 01:30N 33°44' W 118°15'0 0.0
2017-Sep-15 00:58N 33°44' W 118°15'0 0.0
2017-Sep-15 00:30N 33°44' W 118°15'0 0.0
2017-Sep-15 00:00N 33°44' W 118°15'0 0.0
2017-Sep-14 23:30N 33°44' W 118°15'0 0.0
2017-Sep-14 23:00N 33°44' W 118°15'0 0.0
2017-Sep-14 22:30N 33°44' W 118°15'0 0.0
2017-Sep-14 22:00N 33°44' W 118°15'0 0.0
2017-Sep-14 21:30N 33°44' W 118°15'0 0.0
2017-Sep-14 21:00N 33°44' W 118°15'0 0.0
2017-Sep-14 20:24N 33°44' W 118°15'0 0.0
2017-Sep-14 20:00N 33°44' W 118°15'0 0.0
2017-Sep-14 19:30N 33°44' W 118°15'0 0.0
2017-Sep-14 19:01N 33°44' W 118°15'0 0.0
2017-Sep-14 18:30N 33°44' W 118°15'0 0.0
2017-Sep-14 18:00N 33°44' W 118°15'0 0.1
2017-Sep-14 17:24N 33°44' W 118°15'0 0.1
2017-Sep-14 17:00N 33°44' W 118°15'0 0.1
2017-Sep-14 16:30N 33°44' W 118°15'0 0.1
2017-Sep-14 16:00N 33°44' W 118°15'0 0.1
2017-Sep-14 15:30N 33°44' W 118°15'0 0.1
2017-Sep-14 15:00N 33°44' W 118°15'0 0.0
2017-Sep-14 14:31N 33°44' W 118°15'0 0.0
2017-Sep-14 13:58N 33°44' W 118°15'0 0.0
2017-Sep-14 13:31N 33°44' W 118°15'0 0.0
2017-Sep-14 13:01N 33°44' W 118°15'0 0.1
2017-Sep-14 12:30N 33°44' W 118°15'0 0.1
2017-Sep-14 12:01N 33°44' W 118°15'0 0.0
2017-Sep-14 11:31N 33°44' W 118°15'0 0.0
2017-Sep-14 11:01N 33°44' W 118°15'0 0.0
2017-Sep-14 10:30N 33°44' W 118°15'0 0.0
2017-Sep-14 10:00N 33°44' W 118°15'0 0.1
2017-Sep-14 09:30N 33°44' W 118°15'0 0.1
2017-Sep-14 09:00N 33°44' W 118°15'0 0.0
2017-Sep-14 08:30N 33°44' W 118°15'0 0.0
2017-Sep-14 08:00N 33°44' W 118°15'0 0.3
2017-Sep-14 07:30N 33°44' W 118°15'2 4.0
2017-Sep-14 07:00N 33°42' W 118°15'4 7.5
2017-Sep-14 06:30N 33°38' W 118°14'4 8.5
2017-Sep-14 06:00N 33°36' W 118°18'611.6
2017-Sep-14 05:30N 33°36' W 118°25'811.9
2017-Sep-14 04:51N 33°36' W 118°34'411.7
2017-Sep-14 04:30N 33°36' W 118°39'611.8
2017-Sep-14 04:00N 33°36' W 118°46'812.1
2017-Sep-14 03:22N 33°36' W 118°55'719.9
2017-Sep-14 03:00N 33°36' W 119°04'1121.5
2017-Sep-14 02:30N 33°33' W 119°16'1121.6
2017-Sep-14 02:00N 33°29' W 119°29'1121.5
2017-Sep-14 01:30N 33°26' W 119°41'1221.2
2017-Sep-14 00:55N 33°22' W 119°55'920.8
2017-Sep-14 00:30N 33°19' W 120°05'1020.6
2017-Sep-14 00:00N 33°15' W 120°16'1120.9
2017-Sep-13 23:30N 33°11' W 120°28'1121.4
2017-Sep-13 23:00N 33°08' W 120°40'1121.2
2017-Sep-13 22:30N 33°04' W 120°52'37419.2
2017-Sep-13 03:03N 35°20' W 127°53'121.2
2017-Sep-13 03:00N 35°20' W 127°54'19120.0
2017-Sep-12 17:28N 36°58' W 131°18'  

Dump ship's entire track history